Time;durP1;ratioP1;P1;durP2;ratioP2;P2;SDS_P1;SDS_P2;PMS_P1;PMS_P2;Temp;Humidity;BMP_temperature;BMP_pressure;BME280_temperature;BME280_humidity;BME280_pressure;Samples;Min_cycle;Max_cycle;Signal;HPM_P1;HPM_P2
2023/10/20 00:00:15;;;;;;;4.90;2.50;;;;;;;8.03;100.00;99053.88;5073824;28;20441;-71
2023/10/20 00:02:42;;;;;;;3.70;1.40;;;;;;;8.01;100.00;99053.38;5073588;28;20908;-71
2023/10/20 00:05:10;;;;;;;5.83;2.40;;;;;;;8.05;100.00;99046.25;5073579;28;20433;-71
2023/10/20 00:07:36;;;;;;;3.10;1.10;;;;;;;8.07;100.00;99054.81;5072608;28;21022;-71
2023/10/20 00:10:03;;;;;;;2.97;1.67;;;;;;;8.04;100.00;99060.84;5074793;22;20501;-66
2023/10/20 00:12:30;;;;;;;3.93;1.57;;;;;;;8.07;100.00;99055.59;5053301;28;20536;-66
2023/10/20 00:14:58;;;;;;;3.00;1.27;;;;;;;8.08;100.00;99051.78;5053984;28;20440;-66
2023/10/20 00:17:25;;;;;;;3.67;1.83;;;;;;;8.07;100.00;99039.44;5053869;28;20546;-66
2023/10/20 00:19:51;;;;;;;9.40;3.00;;;;;;;8.07;100.00;99042.13;5053680;28;20442;-66
2023/10/20 00:22:18;;;;;;;7.10;3.20;;;;;;;8.11;100.00;99052.28;5053507;28;20468;-66
2023/10/20 00:24:45;;;;;;;6.17;2.80;;;;;;;8.10;100.00;99043.38;5053248;28;20529;-66
2023/10/20 00:27:13;;;;;;;5.47;2.47;;;;;;;8.15;100.00;99045.91;5053519;28;20553;-66
2023/10/20 00:29:40;;;;;;;8.13;1.80;;;;;;;8.13;100.00;99041.94;5053877;28;20553;-66
2023/10/20 00:32:10;;;;;;;5.30;2.17;;;;;;;8.13;100.00;99040.03;5053720;28;20588;-65
2023/10/20 00:34:37;;;;;;;3.20;1.53;;;;;;;8.10;100.00;99035.28;5053659;28;20433;-65
2023/10/20 00:37:04;;;;;;;5.33;2.10;;;;;;;8.04;100.00;99034.66;5053298;28;20457;-65
2023/10/20 00:39:30;;;;;;;3.10;1.63;;;;;;;7.98;100.00;99029.78;5054057;28;20998;-66
2023/10/20 00:41:57;;;;;;;3.67;1.23;;;;;;;7.93;100.00;99024.56;5053444;28;20440;-66
2023/10/20 00:44:24;;;;;;;3.60;1.73;;;;;;;7.94;100.00;99032.34;5053251;28;20533;-66
2023/10/20 00:46:50;;;;;;;4.67;1.70;;;;;;;7.96;100.00;99035.47;5053265;28;20542;-66
2023/10/20 00:49:18;;;;;;;3.27;1.30;;;;;;;7.94;100.00;99029.63;5053205;28;20466;-66
2023/10/20 00:51:45;;;;;;;4.27;1.23;;;;;;;7.91;100.00;99021.41;5052848;28;21088;-66
2023/10/20 00:54:14;;;;;;;4.80;2.30;;;;;;;7.93;100.00;99021.88;5053264;28;20477;-66
2023/10/20 00:56:42;;;;;;;3.13;1.30;;;;;;;7.92;100.00;99009.50;5053271;28;21348;-66
2023/10/20 00:59:09;;;;;;;3.30;1.33;;;;;;;7.98;100.00;99002.81;5053868;28;20437;-66
2023/10/20 01:01:36;;;;;;;6.00;1.63;;;;;;;7.97;100.00;98996.66;5053255;28;20438;-66
2023/10/20 01:04:03;;;;;;;5.17;1.60;;;;;;;7.99;100.00;98999.81;5053192;28;20442;-66
2023/10/20 01:06:32;;;;;;;1.90;0.67;;;;;;;8.01;100.00;99005.69;5052885;28;21041;-66
2023/10/20 01:08:59;;;;;;;3.47;1.40;;;;;;;8.01;100.00;99012.94;5052945;28;20446;-66
2023/10/20 01:11:25;;;;;;;2.73;1.30;;;;;;;8.00;100.00;99006.75;5053025;28;20473;-66
2023/10/20 01:13:52;;;;;;;4.13;2.07;;;;;;;8.02;100.00;99014.56;5053179;28;20444;-66
2023/10/20 01:16:19;;;;;;;2.93;1.50;;;;;;;8.03;100.00;99016.13;5052981;28;20458;-66
2023/10/20 01:18:45;;;;;;;2.63;1.47;;;;;;;8.04;100.00;99023.88;5053451;28;20442;-66
2023/10/20 01:21:12;;;;;;;7.73;2.00;;;;;;;8.04;100.00;99020.41;5056598;28;20537;-66
2023/10/20 01:23:40;;;;;;;3.60;1.53;;;;;;;8.08;100.00;99018.66;5057406;28;20433;-66
2023/10/20 01:26:08;;;;;;;5.37;2.73;;;;;;;8.08;100.00;99019.44;5056075;28;20942;-66
2023/10/20 01:28:35;;;;;;;3.83;1.33;;;;;;;8.07;100.00;99011.69;5056545;28;20446;-66
2023/10/20 01:31:03;;;;;;;2.77;1.13;;;;;;;8.14;100.00;99008.47;5056565;28;20450;-66
2023/10/20 01:33:30;;;;;;;3.17;1.30;;;;;;;8.12;100.00;98998.00;5056430;28;20442;-66
2023/10/20 01:35:56;;;;;;;3.40;1.43;;;;;;;8.09;100.00;99009.44;5056427;28;21022;-65
2023/10/20 01:38:23;;;;;;;2.93;1.60;;;;;;;8.05;100.00;98998.50;5056246;28;20510;-65
2023/10/20 01:40:49;;;;;;;4.10;1.57;;;;;;;8.09;100.00;98991.34;5056360;28;20438;-66
2023/10/20 01:43:17;;;;;;;2.80;1.20;;;;;;;8.07;100.00;98987.41;5056228;28;20531;-66
2023/10/20 01:45:44;;;;;;;3.67;2.00;;;;;;;8.09;100.00;98985.16;5056563;28;20526;-65
2023/10/20 01:48:11;;;;;;;2.90;1.40;;;;;;;8.11;100.00;98982.94;5056082;28;20545;-65
2023/10/20 01:50:38;;;;;;;4.20;1.57;;;;;;;8.13;100.00;98978.00;5056052;28;20454;-65
2023/10/20 01:53:05;;;;;;;2.70;1.10;;;;;;;8.07;100.00;98990.09;5055984;28;20482;-65
2023/10/20 01:55:31;;;;;;;3.90;2.03;;;;;;;8.06;100.00;98977.75;5055704;28;20441;-66
2023/10/20 01:57:58;;;;;;;3.93;1.33;;;;;;;8.03;100.00;98978.38;5055460;28;20497;-65
2023/10/20 02:00:26;;;;;;;3.47;1.37;;;;;;;8.05;100.00;98971.53;5055482;28;20529;-66
2023/10/20 02:02:53;;;;;;;3.40;1.37;;;;;;;8.04;100.00;98969.97;5056242;28;20444;-66
2023/10/20 02:05:20;;;;;;;4.17;1.40;;;;;;;8.08;100.00;98970.09;5055905;28;20972;-66
2023/10/20 02:07:46;;;;;;;2.10;0.90;;;;;;;8.07;100.00;98976.63;5055698;28;20458;-66
2023/10/20 02:10:15;;;;;;;2.80;1.17;;;;;;;8.06;100.00;98991.22;5055487;28;20450;-66
2023/10/20 02:12:42;;;;;;;5.30;1.47;;;;;;;8.00;100.00;98982.50;5055533;28;20490;-67
2023/10/20 02:15:09;;;;;;;2.37;0.90;;;;;;;8.06;100.00;98972.34;5056074;28;20435;-67
2023/10/20 02:17:37;;;;;;;3.40;1.37;;;;;;;8.09;100.00;98963.59;5055520;28;20492;-67
2023/10/20 02:20:04;;;;;;;3.87;1.13;;;;;;;8.10;100.00;98973.25;5055606;28;20521;-67
2023/10/20 02:22:31;;;;;;;7.60;2.23;;;;;;;8.06;100.00;98966.97;5055919;28;20448;-67
2023/10/20 02:24:58;;;;;;;3.00;1.10;;;;;;;8.06;100.00;98965.03;5055659;28;20437;-67
2023/10/20 02:27:24;;;;;;;4.27;1.20;;;;;;;8.08;100.00;98962.03;5055302;28;20462;-67
2023/10/20 02:29:51;;;;;;;2.40;1.00;;;;;;;8.08;100.00;98953.94;5055111;28;20806;-67
2023/10/20 02:32:18;;;;;;;2.33;0.90;;;;;;;8.05;100.00;98949.97;5055174;28;20536;-67
2023/10/20 02:34:46;;;;;;;2.53;0.90;;;;;;;8.06;100.00;98959.66;5055466;28;20474;-67
2023/10/20 02:37:14;;;;;;;3.90;1.33;;;;;;;8.06;100.00;98959.66;5055156;28;20523;-67
2023/10/20 02:39:41;;;;;;;2.80;1.10;;;;;;;8.05;100.00;98949.97;5055507;28;20446;-67
2023/10/20 02:42:08;;;;;;;3.30;1.10;;;;;;;8.02;100.00;98945.25;5055526;28;20517;-67
2023/10/20 02:44:34;;;;;;;3.27;1.30;;;;;;;8.03;100.00;98941.41;5054624;28;20526;-67
2023/10/20 02:47:01;;;;;;;2.73;1.20;;;;;;;8.04;100.00;98934.91;5054600;28;21039;-67
2023/10/20 02:49:28;;;;;;;5.20;2.10;;;;;;;8.03;100.00;98937.94;5054965;28;20485;-68
2023/10/20 02:51:56;;;;;;;3.10;1.20;;;;;;;8.01;100.00;98930.19;5054975;28;20544;-68
2023/10/20 02:54:22;;;;;;;2.67;1.00;;;;;;;8.04;100.00;98926.03;5054997;28;20438;-68
2023/10/20 02:56:49;;;;;;;2.30;0.77;;;;;;;8.03;100.00;98924.47;5054630;28;20485;-68
2023/10/20 02:59:15;;;;;;;2.90;0.97;;;;;;;8.00;100.00;98920.50;5054545;28;20474;-67
2023/10/20 03:01:43;;;;;;;2.00;0.60;;;;;;;8.02;100.00;98928.28;5055184;28;20438;-68
2023/10/20 03:04:10;;;;;;;3.40;1.03;;;;;;;8.05;100.00;98927.59;5054900;28;20446;-68
2023/10/20 03:06:36;;;;;;;2.50;0.80;;;;;;;8.01;100.00;98926.66;5054757;28;20545;-68
2023/10/20 03:09:05;;;;;;;2.40;0.70;;;;;;;8.01;100.00;98921.28;5054497;28;20552;-67
2023/10/20 03:11:31;;;;;;;2.37;0.83;;;;;;;8.03;100.00;98924.47;5055152;28;20446;-67
2023/10/20 03:13:58;;;;;;;3.03;1.07;;;;;;;8.00;100.00;98925.09;5054555;28;20484;-67
2023/10/20 03:16:25;;;;;;;3.90;1.00;;;;;;;7.97;100.00;98923.03;5054340;28;20992;-67
2023/10/20 03:18:51;;;;;;;3.33;1.23;;;;;;;7.97;100.00;98910.38;5054460;28;20480;-67
2023/10/20 03:21:19;;;;;;;2.70;1.00;;;;;;;7.92;100.00;98907.84;5054725;28;20517;-67
2023/10/20 03:23:45;;;;;;;2.50;0.87;;;;;;;7.90;100.00;98910.09;5054438;28;20461;-67
2023/10/20 03:26:14;;;;;;;2.70;1.10;;;;;;;7.88;100.00;98909.63;5054651;28;20458;-67
2023/10/20 03:28:41;;;;;;;2.70;0.97;;;;;;;7.84;100.00;98897.91;5054240;28;20466;-67
2023/10/20 03:31:08;;;;;;;2.10;0.53;;;;;;;7.83;100.00;98905.22;5054375;28;20435;-67
2023/10/20 03:33:35;;;;;;;2.40;0.93;;;;;;;7.87;100.00;98899.94;5053766;28;20601;-67
2023/10/20 03:36:03;;;;;;;2.63;0.90;;;;;;;7.84;100.00;98890.63;5054283;28;20462;-67
2023/10/20 03:38:29;;;;;;;2.30;0.87;;;;;;;7.81;100.00;98896.66;5054082;28;20496;-67
2023/10/20 03:41:05;;;;;;;2.87;0.93;;;;;;;7.84;100.00;98903.31;5054300;28;20529;-67
2023/10/20 03:43:34;;;;;;;2.40;0.70;;;;;;;7.81;100.00;98891.25;5053732;28;20419;-67
2023/10/20 03:46:01;;;;;;;2.00;0.43;;;;;;;7.78;100.00;98889.19;5054046;28;20949;-67
2023/10/20 03:48:29;;;;;;;2.77;1.00;;;;;;;7.79;100.00;98888.09;5054451;28;20514;-67
2023/10/20 03:50:56;;;;;;;2.60;0.60;;;;;;;7.76;100.00;98875.28;5053624;28;20946;-67
2023/10/20 03:53:26;;;;;;;2.87;1.03;;;;;;;7.75;100.00;98870.22;5054178;28;21040;-67
2023/10/20 03:56:00;;;;;;;2.07;0.60;;;;;;;7.76;100.00;98872.56;5053896;28;20456;-67
2023/10/20 03:58:26;;;;;;;3.20;1.40;;;;;;;7.72;100.00;98860.84;5053799;28;20465;-67
2023/10/20 04:00:55;;;;;;;2.03;0.80;;;;;;;7.70;100.00;98856.91;5054518;28;20446;-67
2023/10/20 04:03:22;;;;;;;3.40;1.27;;;;;;;7.71;100.00;98848.50;5053665;28;20521;-67
2023/10/20 04:05:48;;;;;;;2.00;0.60;;;;;;;7.73;100.00;98845.47;5053867;28;20442;-67
2023/10/20 04:08:16;;;;;;;2.03;0.53;;;;;;;7.71;100.00;98837.72;5053952;28;20438;-67
2023/10/20 04:10:43;;;;;;;2.00;0.50;;;;;;;7.70;100.00;98846.94;5053705;28;20533;-67
2023/10/20 04:13:10;;;;;;;2.20;1.00;;;;;;;7.70;100.00;98840.72;5053564;28;20482;-67
2023/10/20 04:15:39;;;;;;;2.00;0.60;;;;;;;7.71;100.00;98843.13;5053260;28;20860;-67
2023/10/20 04:18:07;;;;;;;2.87;1.00;;;;;;;7.65;100.00;98847.09;5053647;28;20954;-67
2023/10/20 04:20:37;;;;;;;2.30;0.67;;;;;;;7.67;100.00;98852.19;5053738;28;20442;-67
2023/10/20 04:23:04;;;;;;;2.20;0.90;;;;;;;7.66;100.00;98851.38;5053708;28;20571;-67
2023/10/20 04:25:33;;;;;;;2.50;0.93;;;;;;;7.65;100.00;98857.88;5053399;28;20481;-67
2023/10/20 04:28:11;;;;;;;2.00;0.60;;;;;;;7.58;100.00;98846.81;5053476;28;20466;-67
2023/10/20 04:50:52;;;;;;;3.40;1.10;;;;;;;7.54;100.00;98822.44;5027241;28;20521;-66
2023/10/20 04:53:41;;;;;;;2.00;0.67;;;;;;;7.56;100.00;98841.75;5054897;28;20473;-66
2023/10/20 04:56:30;;;;;;;2.60;0.67;;;;;;;7.58;100.00;98844.13;5056805;28;20469;-67
2023/10/20 04:58:58;;;;;;;1.87;0.50;;;;;;;7.60;100.00;98849.97;5057110;28;20476;-67
2023/10/20 05:01:28;;;;;;;7.00;1.30;;;;;;;7.59;100.00;98851.09;5057109;28;20442;-67
2023/10/20 05:03:57;;;;;;;3.93;0.83;;;;;;;7.54;100.00;98843.19;5056895;28;20495;-67
2023/10/20 05:06:40;;;;;;;2.83;1.07;;;;;;;7.52;100.00;98840.00;5056878;28;20466;-66
2023/10/20 05:09:08;;;;;;;2.87;1.00;;;;;;;7.46;100.00;98828.63;5056393;28;20454;-67
2023/10/20 05:11:35;;;;;;;2.40;0.60;;;;;;;7.43;100.00;98836.56;5056686;28;20945;-67
2023/10/20 05:14:02;;;;;;;2.73;0.87;;;;;;;7.42;100.00;98837.69;5057070;28;20485;-67
2023/10/20 05:16:32;;;;;;;1.90;0.50;;;;;;;7.44;100.00;98835.47;5056321;28;20879;-67
2023/10/20 05:19:00;;;;;;;4.90;1.33;;;;;;;7.45;100.00;98837.84;5057214;28;20499;-67
2023/10/20 05:21:29;;;;;;;2.10;0.60;;;;;;;7.39;100.00;98831.03;5056561;28;20521;-67
2023/10/20 05:23:55;;;;;;;2.63;1.10;;;;;;;7.37;100.00;98832.47;5056390;28;20812;-67
2023/10/20 05:26:23;;;;;;;2.40;1.20;;;;;;;7.43;100.00;98847.34;5056514;28;20462;-67
2023/10/20 05:28:50;;;;;;;2.67;1.13;;;;;;;7.42;100.00;98835.00;5056392;28;20476;-67
2023/10/20 05:31:22;;;;;;;2.50;1.13;;;;;;;7.43;100.00;98842.75;5056427;28;20954;-69
2023/10/20 05:33:49;;;;;;;7.13;1.73;;;;;;;7.45;100.00;98837.06;5056560;28;20476;-67
2023/10/20 05:36:16;;;;;;;2.50;1.00;;;;;;;7.44;100.00;98855.13;5056044;28;21004;-67
2023/10/20 05:38:44;;;;;;;2.47;1.10;;;;;;;7.43;100.00;98841.94;5056791;28;20460;-67
2023/10/20 05:41:11;;;;;;;2.30;0.67;;;;;;;7.40;100.00;98843.41;5056468;28;20533;-67
2023/10/20 05:43:41;;;;;;;2.30;0.80;;;;;;;7.36;100.00;98844.38;5055982;28;20447;-68
2023/10/20 05:46:13;;;;;;;2.50;0.80;;;;;;;7.38;100.00;98828.66;5055766;28;21182;-68
2023/10/20 05:48:40;;;;;;;4.83;1.53;;;;;;;7.33;100.00;98825.03;5055919;28;20469;-68
2023/10/20 05:51:07;;;;;;;2.40;0.80;;;;;;;7.32;100.00;98817.28;5056025;28;20537;-68
2023/10/20 05:53:33;;;;;;;3.03;1.20;;;;;;;7.26;100.00;98816.69;5055875;28;20482;-68
2023/10/20 05:56:01;;;;;;;2.50;1.10;;;;;;;7.28;100.00;98808.28;5055940;28;20443;-68
2023/10/20 05:58:28;;;;;;;4.70;1.90;;;;;;;7.27;100.00;98820.16;5056406;28;20517;-68
2023/10/20 06:00:55;;;;;;;4.67;1.23;;;;;;;7.22;100.00;98810.38;5056021;28;20473;-68
2023/10/20 06:03:22;;;;;;;4.30;1.43;;;;;;;7.28;100.00;98802.91;5056198;28;20537;-67
2023/10/20 06:05:49;;;;;;;2.63;1.00;;;;;;;7.28;100.00;98808.28;5055043;28;20438;-68
2023/10/20 06:10:49;;;;;;;2.23;0.80;;;;;;;7.24;100.00;98791.97;5073857;28;20562;-69
2023/10/20 06:13:18;;;;;;;4.87;2.43;;;;;;;7.23;100.00;98790.41;5075669;28;20492;-69
2023/10/20 06:15:44;;;;;;;2.10;0.60;;;;;;;7.22;100.00;98791.50;5075410;28;20445;-69
2023/10/20 06:18:11;;;;;;;2.23;0.93;;;;;;;7.20;100.00;98795.63;5075277;28;20465;-69
2023/10/20 06:20:39;;;;;;;4.00;1.43;;;;;;;7.18;100.00;98806.72;5075270;28;20476;-71
2023/10/20 06:23:06;;;;;;;2.40;1.00;;;;;;;7.22;100.00;98815.75;5075349;28;20433;-70
2023/10/20 06:25:33;;;;;;;2.63;1.17;;;;;;;7.26;100.00;98824.78;5075183;28;20445;-69
2023/10/20 06:27:59;;;;;;;3.27;1.23;;;;;;;7.24;100.00;98818.13;5075444;28;20458;-69
2023/10/20 06:30:27;;;;;;;2.70;0.87;;;;;;;7.21;100.00;98810.66;5074981;28;21032;-69
2023/10/20 06:33:16;;;;;;;2.60;1.13;;;;;;;7.23;100.00;98808.47;5074781;28;21086;-69
2023/10/20 06:35:50;;;;;;;3.60;1.17;;;;;;;7.26;100.00;98800.53;5075325;28;20433;-70
2023/10/20 06:38:19;;;;;;;2.30;0.80;;;;;;;7.30;100.00;98782.63;5075408;28;20428;-70
2023/10/20 06:40:47;;;;;;;3.07;1.13;;;;;;;7.31;100.00;98784.19;5075694;28;20460;-70
2023/10/20 06:43:16;;;;;;;3.63;1.10;;;;;;;7.30;100.00;98774.53;5078212;28;20437;-70
2023/10/20 06:45:44;;;;;;;7.63;2.00;;;;;;;7.34;100.00;98764.66;5080491;28;20873;-69
2023/10/20 06:48:11;;;;;;;3.13;1.27;;;;;;;7.36;100.00;98769.75;5079632;28;20461;-69
2023/10/20 06:50:37;;;;;;;3.23;1.77;;;;;;;7.38;100.00;98747.88;5080499;28;20524;-69
2023/10/20 06:53:05;;;;;;;4.23;0.90;;;;;;;7.37;100.00;98735.53;5081244;28;20567;-70
2023/10/20 06:55:31;;;;;;;3.10;0.80;;;;;;;7.38;100.00;98761.34;5081436;28;20461;-71
2023/10/20 06:57:58;;;;;;;2.83;0.93;;;;;;;7.37;100.00;98765.16;5083479;28;20458;-71
2023/10/20 07:00:26;;;;;;;3.47;1.77;;;;;;;7.26;100.00;98760.13;5084349;28;20473;-71
2023/10/20 07:02:54;;;;;;;2.90;1.20;;;;;;;7.31;100.00;98751.88;5083299;28;20952;-71
2023/10/20 07:05:23;;;;;;;2.50;1.30;;;;;;;7.33;100.00;98746.94;5082062;28;20521;-71
2023/10/20 07:07:50;;;;;;;4.53;1.90;;;;;;;7.36;100.00;98748.22;5078417;28;20850;-71
2023/10/20 07:10:18;;;;;;;5.10;1.60;;;;;;;7.33;100.00;98755.00;5077528;28;20449;-71
2023/10/20 07:12:44;;;;;;;3.20;1.30;;;;;;;7.36;100.00;98753.59;5074182;28;20495;-71
2023/10/20 07:15:11;;;;;;;3.47;1.13;;;;;;;7.34;100.00;98748.50;5073969;28;20940;-73
2023/10/20 07:17:38;;;;;;;4.50;1.10;;;;;;;7.33;100.00;98748.84;5073854;28;20458;-73
2023/10/20 07:20:08;;;;;;;2.43;0.97;;;;;;;7.27;100.00;98740.16;5074161;28;20494;-71
2023/10/20 07:22:34;;;;;;;4.23;1.93;;;;;;;7.20;100.00;98737.19;5074590;28;20520;-71
2023/10/20 07:25:01;;;;;;;2.40;1.10;;;;;;;7.15;100.00;98715.84;5074181;28;20446;-70
2023/10/20 07:27:27;;;;;;;2.63;1.20;;;;;;;7.18;100.00;98714.41;5074128;28;20802;-71
2023/10/20 07:29:54;;;;;;;4.00;1.40;;;;;;;7.12;100.00;98713.00;5074014;28;20802;-70
2023/10/20 07:32:21;;;;;;;5.03;2.40;;;;;;;7.15;100.00;98728.50;5074090;28;20534;-71
2023/10/20 07:34:48;;;;;;;3.00;1.40;;;;;;;7.07;100.00;98738.97;5074263;28;20519;-71
2023/10/20 07:37:16;;;;;;;2.73;0.93;;;;;;;7.12;100.00;98739.91;5073813;28;20461;-71
2023/10/20 07:39:44;;;;;;;6.37;1.30;;;;;;;7.11;100.00;98728.34;5074047;28;20441;-71
2023/10/20 07:42:11;;;;;;;2.93;1.00;;;;;;;7.14;100.00;98727.72;5073459;28;20524;-71
2023/10/20 07:44:37;;;;;;;2.47;0.93;;;;;;;7.14;100.00;98719.63;5073757;28;20520;-71
2023/10/20 07:47:06;;;;;;;2.50;1.20;;;;;;;7.07;100.00;98703.19;5073665;28;20492;-70
2023/10/20 07:49:32;;;;;;;6.47;1.30;;;;;;;7.09;100.00;98706.38;5073806;28;20514;-70
2023/10/20 07:52:00;;;;;;;2.90;1.00;;;;;;;7.09;100.00;98692.91;5073690;28;20453;-71
2023/10/20 07:54:29;;;;;;;3.17;1.60;;;;;;;7.08;100.00;98697.50;5073755;28;20472;-71
2023/10/20 07:56:56;;;;;;;2.47;1.10;;;;;;;7.08;100.00;98691.31;5073759;28;20464;-71
2023/10/20 07:59:23;;;;;;;2.20;0.70;;;;;;;7.06;100.00;98685.47;5073541;28;20933;-71
2023/10/20 08:01:49;;;;;;;3.60;1.63;;;;;;;7.06;100.00;98680.88;5073493;28;20473;-71
2023/10/20 08:04:16;;;;;;;3.23;1.07;;;;;;;7.10;100.00;98689.09;5073412;28;20806;-71
2023/10/20 08:06:43;;;;;;;2.90;0.90;;;;;;;7.12;100.00;98675.31;5074059;28;20457;-71
2023/10/20 08:09:11;;;;;;;2.70;1.10;;;;;;;7.10;100.00;98680.22;5072936;28;20957;-71
2023/10/20 08:11:41;;;;;;;2.37;1.03;;;;;;;7.10;100.00;98678.31;5073696;28;20783;-71
2023/10/20 08:14:09;;;;;;;3.00;1.30;;;;;;;7.13;100.00;98672.31;5073475;28;20575;-71
2023/10/20 08:16:36;;;;;;;2.27;0.80;;;;;;;7.10;100.00;98681.03;5073683;28;20552;-71
2023/10/20 08:19:03;;;;;;;2.40;0.60;;;;;;;7.03;100.00;98686.09;5073554;28;20449;-71
2023/10/20 08:21:30;;;;;;;2.80;1.40;;;;;;;7.01;100.00;98675.69;5073614;28;20532;-71
2023/10/20 08:23:58;;;;;;;2.10;0.80;;;;;;;7.01;100.00;98669.50;5073429;28;20441;-70
2023/10/20 08:26:25;;;;;;;2.90;0.87;;;;;;;6.98;100.00;98665.56;5073124;28;20441;-70
2023/10/20 08:28:53;;;;;;;2.87;1.00;;;;;;;6.95;100.00;98685.06;5075330;28;20934;-71
2023/10/20 08:31:21;;;;;;;6.60;1.63;;;;;;;6.99;100.00;98693.25;5077325;28;20490;-71
2023/10/20 08:33:51;;;;;;;2.73;0.80;;;;;;;6.97;100.00;98685.50;5077371;28;20488;-71
2023/10/20 08:36:21;;;;;;;3.73;1.80;;;;;;;7.02;100.00;98685.31;5077100;28;20544;-71
2023/10/20 08:38:49;;;;;;;3.40;1.10;;;;;;;7.06;100.00;98686.25;5077190;28;20825;-71
2023/10/20 08:41:18;;;;;;;2.30;0.93;;;;;;;7.04;100.00;98685.81;5077567;28;20475;-71
2023/10/20 08:43:46;;;;;;;2.80;1.20;;;;;;;7.06;100.00;98688.16;5076832;28;20844;-71
2023/10/20 08:46:16;;;;;;;3.43;1.10;;;;;;;7.04;100.00;98685.81;5076576;28;20827;-71
2023/10/20 08:48:43;;;;;;;2.97;1.27;;;;;;;7.07;100.00;98693.22;5077013;28;20460;-71
2023/10/20 08:51:12;;;;;;;2.63;0.93;;;;;;;7.06;100.00;98691.63;5076749;28;20528;-71
2023/10/20 08:53:39;;;;;;;2.90;1.30;;;;;;;7.14;100.00;98681.94;5076974;28;20485;-71
2023/10/20 08:56:07;;;;;;;2.63;1.10;;;;;;;7.19;100.00;98660.22;5076702;28;20486;-71
2023/10/20 08:58:35;;;;;;;2.87;0.87;;;;;;;7.23;100.00;98669.22;5076701;28;20437;-71
2023/10/20 09:01:02;;;;;;;3.00;0.97;;;;;;;7.24;100.00;98676.19;5076359;28;20820;-71
2023/10/20 09:03:39;;;;;;;3.80;1.43;;;;;;;7.28;100.00;98673.63;5076657;28;20465;-71
2023/10/20 09:06:06;;;;;;;5.07;1.30;;;;;;;7.31;100.00;98686.47;5076548;28;20505;-71
2023/10/20 09:08:33;;;;;;;3.27;0.90;;;;;;;7.23;100.00;98676.53;5076426;28;20955;-71
2023/10/20 09:10:59;;;;;;;4.33;1.40;;;;;;;7.20;100.00;98677.94;5076449;28;20745;-71
2023/10/20 09:13:32;;;;;;;3.17;1.43;;;;;;;7.17;100.00;98670.53;5076292;28;20967;-70
2023/10/20 09:15:58;;;;;;;2.53;0.57;;;;;;;7.15;100.00;98670.06;5076812;28;20491;-70
2023/10/20 09:18:25;;;;;;;2.73;1.03;;;;;;;7.09;100.00;98660.59;5076074;28;20937;-71
2023/10/20 09:21:03;;;;;;;1.90;0.60;;;;;;;7.07;100.00;98660.91;5076053;28;20441;-71
2023/10/20 09:23:29;;;;;;;3.70;1.57;;;;;;;7.08;100.00;98662.50;5076373;28;20448;-71
2023/10/20 09:25:56;;;;;;;2.27;0.60;;;;;;;7.04;100.00;98660.78;5076177;28;21047;-71
2023/10/20 09:28:23;;;;;;;3.40;1.30;;;;;;;7.03;100.00;98661.88;5075868;28;20921;-71
2023/10/20 09:30:50;;;;;;;13.80;1.00;;;;;;;7.06;100.00;98662.03;5076122;28;20524;-71
2023/10/20 09:33:17;;;;;;;2.00;0.57;;;;;;;7.01;100.00;98654.16;5076115;28;20516;-71
2023/10/20 09:35:46;;;;;;;3.00;1.17;;;;;;;6.96;100.00;98640.09;5076338;28;20575;-71
2023/10/20 09:38:16;;;;;;;2.97;1.53;;;;;;;6.96;100.00;98638.19;5076192;28;20430;-71
2023/10/20 09:40:43;;;;;;;2.63;0.80;;;;;;;6.98;100.00;98619.78;5074498;28;20918;-71
2023/10/20 09:43:19;;;;;;;2.83;1.43;;;;;;;6.95;100.00;98622.34;5076435;28;20473;-71
2023/10/20 09:45:50;;;;;;;2.37;0.87;;;;;;;6.94;100.00;98632.31;5076662;28;20425;-71
2023/10/20 09:48:19;;;;;;;4.13;1.80;;;;;;;6.97;100.00;98628.19;5076110;28;20521;-71
2023/10/20 09:50:47;;;;;;;2.93;1.73;;;;;;;6.95;100.00;98639.31;5075782;28;20930;-71
2023/10/20 09:53:15;;;;;;;2.50;0.80;;;;;;;6.91;100.00;98616.84;5075789;28;20440;-71
2023/10/20 09:55:43;;;;;;;2.90;0.90;;;;;;;6.88;100.00;98619.38;5075503;28;21251;-71
2023/10/20 09:58:10;;;;;;;1.97;0.57;;;;;;;6.81;100.00;98617.97;5075535;28;20511;-71
2023/10/20 10:00:37;;;;;;;2.00;0.60;;;;;;;6.86;100.00;98611.63;5075333;28;20929;-69
2023/10/20 10:03:04;;;;;;;2.53;1.10;;;;;;;6.87;100.00;98615.13;5075311;28;20990;-70
2023/10/20 10:05:33;;;;;;;3.13;0.97;;;;;;;6.87;100.00;98607.06;5075590;28;20548;-70
2023/10/20 10:08:04;;;;;;;2.43;1.03;;;;;;;6.83;100.00;98609.59;5075540;28;20504;-70
2023/10/20 10:10:33;;;;;;;2.53;1.23;;;;;;;6.81;100.00;98601.84;5075000;28;20455;-70
2023/10/20 10:13:01;;;;;;;3.17;1.10;;;;;;;6.78;100.00;98602.50;5075761;28;20507;-70
2023/10/20 10:15:37;;;;;;;3.17;1.60;;;;;;;6.77;100.00;98595.56;5075271;28;20485;-70
2023/10/20 10:18:09;;;;;;;2.60;0.80;;;;;;;6.82;100.00;98608.03;5075264;28;20461;-70
2023/10/20 10:20:42;;;;;;;1.90;0.50;;;;;;;6.75;100.00;98605.06;5075541;28;20424;-69
2023/10/20 10:23:11;;;;;;;3.80;1.67;;;;;;;6.72;100.00;98598.41;5075465;28;20410;-69
2023/10/20 10:25:40;;;;;;;3.53;1.47;;;;;;;6.71;100.00;98602.22;5075633;28;20434;-70
2023/10/20 10:28:13;;;;;;;2.40;1.07;;;;;;;6.70;100.00;98606.03;5075053;28;20495;-70
2023/10/20 10:30:41;;;;;;;3.00;1.20;;;;;;;6.72;100.00;98603.00;5074994;28;20442;-70
2023/10/20 10:33:09;;;;;;;2.30;0.90;;;;;;;6.74;100.00;98603.47;5074637;28;20437;-70
2023/10/20 10:35:38;;;;;;;1.90;0.50;;;;;;;6.72;100.00;98605.69;5074826;28;20477;-70
2023/10/20 10:38:06;;;;;;;2.10;0.80;;;;;;;6.76;100.00;98604.72;5074523;28;20472;-70
2023/10/20 10:40:34;;;;;;;3.57;1.23;;;;;;;6.78;100.00;98590.97;5074824;28;20445;-70
2023/10/20 10:43:02;;;;;;;2.83;1.17;;;;;;;6.83;100.00;98591.56;5074796;28;20437;-70
2023/10/20 10:45:31;;;;;;;2.37;0.90;;;;;;;6.86;100.00;98589.31;5075295;28;20437;-69
2023/10/20 10:48:05;;;;;;;2.67;0.90;;;;;;;6.86;100.00;98594.69;5074798;28;20468;-69
2023/10/20 10:50:32;;;;;;;2.73;0.87;;;;;;;6.77;100.00;98586.66;5074261;28;20444;-70
2023/10/20 10:52:59;;;;;;;2.17;0.63;;;;;;;6.76;100.00;98587.78;5074307;28;20933;-70
2023/10/20 10:55:26;;;;;;;2.20;0.90;;;;;;;6.73;100.00;98574.97;5074431;28;20894;-70
2023/10/20 10:57:53;;;;;;;2.63;1.13;;;;;;;6.70;100.00;98576.44;5074664;28;20548;-69
2023/10/20 11:00:21;;;;;;;2.70;0.93;;;;;;;6.79;100.00;98587.94;5074451;28;20528;-69
2023/10/20 11:02:49;;;;;;;2.30;0.77;;;;;;;6.77;100.00;98576.72;5074094;28;20859;-70
2023/10/20 11:05:16;;;;;;;2.70;0.90;;;;;;;6.81;100.00;98588.38;5074288;28;20483;-70
2023/10/20 11:07:56;;;;;;;2.70;0.90;;;;;;;6.83;100.00;98596.94;5073898;28;20964;-69
2023/10/20 11:10:26;;;;;;;6.43;2.00;;;;;;;6.81;100.00;98607.22;5074017;28;20544;-69
2023/10/20 11:12:53;;;;;;;3.20;1.00;;;;;;;6.82;100.00;98603.44;5073944;28;20901;-69
2023/10/20 11:15:21;;;;;;;5.17;1.47;;;;;;;6.87;100.00;98601.69;5073721;28;20926;-69
2023/10/20 11:17:49;;;;;;;2.40;0.87;;;;;;;6.82;100.00;98600.75;5073947;28;20544;-69
2023/10/20 11:20:18;;;;;;;2.70;0.97;;;;;;;6.81;100.00;98596.44;5073969;28;20476;-70
2023/10/20 11:22:45;;;;;;;2.13;0.60;;;;;;;6.76;100.00;98595.84;5074519;28;20441;-70
2023/10/20 11:25:19;;;;;;;2.27;1.10;;;;;;;6.79;100.00;98604.06;5074211;28;20444;-71
2023/10/20 11:27:46;;;;;;;2.00;0.63;;;;;;;6.79;100.00;98600.59;5074193;28;20467;-70
2023/10/20 11:30:13;;;;;;;1.80;0.50;;;;;;;6.78;100.00;98597.13;5074284;28;20445;-72
2023/10/20 11:32:41;;;;;;;1.80;0.40;;;;;;;6.82;100.00;98597.28;5073844;28;20441;-70
2023/10/20 11:35:08;;;;;;;2.13;0.87;;;;;;;6.88;100.00;98603.25;5073760;28;20566;-70
2023/10/20 11:37:35;;;;;;;2.47;1.00;;;;;;;6.92;100.00;98606.88;5073723;28;20547;-70
2023/10/20 11:40:02;;;;;;;2.07;0.93;;;;;;;6.94;100.00;98600.03;5073746;28;20467;-70
2023/10/20 11:42:29;;;;;;;2.00;0.60;;;;;;;6.91;100.00;98605.28;5074080;28;20441;-70
2023/10/20 11:44:56;;;;;;;3.60;0.93;;;;;;;6.90;100.00;98607.16;5073702;28;20441;-70
2023/10/20 11:47:22;;;;;;;5.03;1.47;;;;;;;6.92;100.00;98613.03;5073619;28;20556;-70
2023/10/20 11:49:54;;;;;;;2.50;0.70;;;;;;;6.95;100.00;98607.00;5073372;28;20444;-70
2023/10/20 11:52:22;;;;;;;2.53;0.60;;;;;;;6.90;100.00;98609.06;5073376;28;20425;-70
2023/10/20 11:54:50;;;;;;;3.03;0.60;;;;;;;6.91;100.00;98610.69;5073508;28;20480;-70
2023/10/20 11:57:17;;;;;;;2.00;0.40;;;;;;;6.96;100.00;98613.19;5073257;28;20497;-70
2023/10/20 11:59:44;;;;;;;2.40;1.13;;;;;;;7.00;100.00;98606.81;5073197;28;20472;-70